createdAt,value
2023-02-20T00:00:02.804Z,1012.3
2023-02-20T00:01:02.464Z,1012.3
2023-02-20T00:02:01.810Z,1012.3
2023-02-20T00:03:01.787Z,1012.3
2023-02-20T00:04:01.483Z,1012.2
2023-02-20T00:05:01.477Z,1012.1
2023-02-20T00:06:01.471Z,1012.1
2023-02-20T00:07:01.808Z,1012.2
2023-02-20T00:08:02.099Z,1012.1
2023-02-20T00:09:01.635Z,1012.0
2023-02-20T00:10:01.495Z,1012.1
2023-02-20T00:11:02.839Z,1012.2
2023-02-20T00:12:01.816Z,1012.1
2023-02-20T00:13:01.461Z,1012.2
2023-02-20T00:14:01.873Z,1012.1
2023-02-20T00:15:02.113Z,1012.1
2023-02-20T00:16:02.084Z,1011.9
2023-02-20T00:17:01.474Z,1011.8
2023-02-20T00:18:01.906Z,1012.1
2023-02-20T00:19:01.464Z,1011.9
2023-02-20T00:20:03.829Z,1011.9
2023-02-20T00:21:01.821Z,1011.9
2023-02-20T00:22:01.709Z,1011.8
2023-02-20T00:23:01.474Z,1012.0
2023-02-20T00:24:01.473Z,1012.1
2023-02-20T00:25:01.518Z,1012.0
2023-02-20T00:26:01.832Z,1011.9
2023-02-20T00:27:01.478Z,1011.7
2023-02-20T00:28:01.814Z,1011.5
2023-02-20T00:29:01.818Z,1011.6
2023-02-20T00:30:01.646Z,1011.5
2023-02-20T00:31:01.860Z,1011.4
2023-02-20T00:32:01.498Z,1011.4
2023-02-20T00:33:01.664Z,1011.3
2023-02-20T00:34:01.464Z,1011.4
2023-02-20T00:35:01.842Z,1011.5
2023-02-20T00:36:01.821Z,1011.5
2023-02-20T00:37:01.809Z,1011.5
2023-02-20T00:38:01.466Z,1011.6
2023-02-20T00:39:01.477Z,1011.6
2023-02-20T00:40:01.822Z,1011.6
2023-02-20T00:41:01.496Z,1011.5
2023-02-20T00:42:01.954Z,1011.5
2023-02-20T00:43:02.227Z,1011.4
2023-02-20T00:44:02.144Z,1011.3
2023-02-20T00:45:01.863Z,1011.5
2023-02-20T00:46:01.477Z,1011.6
2023-02-20T00:47:01.530Z,1011.5
2023-02-20T00:48:01.475Z,1011.5
2023-02-20T00:49:02.057Z,1011.5
2023-02-20T00:50:01.502Z,1011.5
2023-02-20T00:51:01.461Z,1011.3
2023-02-20T00:52:01.836Z,1011.3
2023-02-20T00:53:01.905Z,1011.2
2023-02-20T00:55:02.115Z,1011.4
2023-02-20T00:56:01.746Z,1011.4
2023-02-20T00:57:01.429Z,1011.5
2023-02-20T00:58:01.428Z,1011.6
2023-02-20T00:59:01.428Z,1011.5
2023-02-20T01:00:01.825Z,1011.4
2023-02-20T01:01:01.867Z,1011.4
2023-02-20T01:02:02.014Z,1011.4
2023-02-20T01:03:01.542Z,1011.3
2023-02-20T01:04:01.910Z,1011.4
2023-02-20T01:05:01.833Z,1011.4
2023-02-20T01:06:02.131Z,1011.3
2023-02-20T01:07:01.796Z,1011.3
2023-02-20T01:08:01.453Z,1011.3
2023-02-20T01:09:01.808Z,1011.3
2023-02-20T01:10:01.758Z,1011.2
2023-02-20T01:11:01.464Z,1011.1
2023-02-20T01:12:01.833Z,1011.1
2023-02-20T01:13:01.453Z,1011.0
2023-02-20T01:14:01.802Z,1010.9
2023-02-20T01:15:01.870Z,1010.8
2023-02-20T01:16:02.124Z,1010.9
2023-02-20T01:17:02.431Z,1010.9
2023-02-20T01:18:01.427Z,1010.9
2023-02-20T01:19:02.158Z,1010.8
2023-02-20T01:20:02.009Z,1010.8
2023-02-20T01:21:01.794Z,1010.7
2023-02-20T01:22:01.768Z,1010.7
2023-02-20T01:23:01.896Z,1010.6
2023-02-20T01:24:01.753Z,1010.6
2023-02-20T01:25:01.768Z,1010.7
2023-02-20T01:26:01.448Z,1010.6
2023-02-20T01:27:01.770Z,1010.7
2023-02-20T01:28:02.416Z,1010.6
2023-02-20T01:29:02.237Z,1010.6
2023-02-20T01:30:01.578Z,1010.6
2023-02-20T01:31:01.535Z,1010.6
2023-02-20T01:32:01.571Z,1010.5
2023-02-20T01:33:01.471Z,1010.6
2023-02-20T01:34:01.472Z,1010.6
2023-02-20T01:35:01.532Z,1010.6
2023-02-20T01:36:01.437Z,1010.6
2023-02-20T01:37:01.450Z,1010.6
2023-02-20T01:38:02.283Z,1010.7
2023-02-20T01:41:02.295Z,1010.5
2023-02-20T01:42:05.407Z,1010.5
2023-02-20T01:43:02.494Z,1010.5
2023-02-20T01:44:01.439Z,1010.5
2023-02-20T01:45:14.277Z,1010.5
2023-02-20T01:46:20.756Z,1010.6
2023-02-20T01:47:05.602Z,1010.5
2023-02-20T01:48:01.999Z,1010.5
2023-02-20T01:49:05.155Z,1010.6
2023-02-20T01:50:02.788Z,1010.6
2023-02-20T01:51:01.332Z,1010.5
2023-02-20T01:52:07.315Z,1010.4
2023-02-20T01:53:06.285Z,1010.1
2023-02-20T01:54:02.073Z,1010.1
2023-02-20T01:55:05.103Z,1010.3
2023-02-20T01:56:06.802Z,1010.3
2023-02-20T01:57:04.509Z,1010.3
2023-02-20T01:58:07.359Z,1010.3
2023-02-20T01:59:03.584Z,1010.3
2023-02-20T02:01:04.189Z,1010.3
2023-02-20T02:05:03.036Z,1010.2
2023-02-20T02:06:05.470Z,1010.3
2023-02-20T02:07:02.197Z,1010.2
2023-02-20T02:08:05.535Z,1010.2
2023-02-20T02:09:06.791Z,1010.2
2023-02-20T02:10:05.985Z,1010.1
2023-02-20T02:11:04.880Z,1010.2
2023-02-20T02:12:02.012Z,1010.2
2023-02-20T02:13:02.324Z,1010.1
2023-02-20T02:14:01.575Z,1010.1
2023-02-20T02:15:01.547Z,1010.0
2023-02-20T02:16:16.176Z,1010.0
2023-02-20T02:17:20.867Z,1010.0
2023-02-20T02:18:18.053Z,1010.1
2023-02-20T02:19:16.968Z,1010.1
2023-02-20T02:20:20.871Z,1010.0
2023-02-20T02:21:20.873Z,1010.0
2023-02-20T02:22:20.866Z,1010.1
2023-02-20T02:23:20.878Z,1010.0
2023-02-20T02:24:20.884Z,1010.0
2023-02-20T02:25:18.427Z,1009.9
2023-02-20T02:26:16.714Z,1009.9
2023-02-20T02:27:20.868Z,1009.9
2023-02-20T02:28:20.874Z,1009.9
2023-02-20T02:29:19.981Z,1009.9
2023-02-20T02:30:20.937Z,1009.9
2023-02-20T02:31:20.953Z,1009.9
2023-02-20T02:32:20.453Z,1009.8
2023-02-20T02:33:15.050Z,1009.8
2023-02-20T02:34:20.867Z,1009.9
2023-02-20T02:35:20.871Z,1009.8
2023-02-20T02:36:20.232Z,1009.8
2023-02-20T02:37:11.902Z,1009.8
2023-02-20T02:38:13.603Z,1009.8
2023-02-20T02:39:10.572Z,1009.7
2023-02-20T02:40:10.921Z,1009.6
2023-02-20T02:41:10.603Z,1009.6
2023-02-20T02:42:14.269Z,1009.6
2023-02-20T02:43:10.960Z,1009.6
2023-02-20T02:44:12.068Z,1009.5
2023-02-20T02:45:09.097Z,1009.6
2023-02-20T02:46:09.140Z,1009.5
2023-02-20T02:47:05.330Z,1009.5
2023-02-20T02:48:10.949Z,1009.5
2023-02-20T02:49:06.938Z,1009.5
2023-02-20T02:50:08.951Z,1009.5
2023-02-20T02:51:07.934Z,1009.4
2023-02-20T02:52:03.623Z,1009.5
2023-02-20T02:53:02.255Z,1009.5
2023-02-20T02:54:08.885Z,1009.5
2023-02-20T02:55:02.393Z,1009.4
2023-02-20T02:56:01.475Z,1009.4
2023-02-20T02:57:20.196Z,1009.4
2023-02-20T02:58:03.077Z,1009.5
2023-02-20T02:59:03.616Z,1009.5
2023-02-20T03:00:08.853Z,1009.5
2023-02-20T03:01:02.315Z,1009.5
2023-02-20T03:02:06.783Z,1009.4
2023-02-20T03:03:09.256Z,1009.5
2023-02-20T03:04:04.514Z,1009.4
2023-02-20T03:05:04.914Z,1009.4
2023-02-20T03:06:06.432Z,1009.4
2023-02-20T03:07:06.524Z,1009.3
2023-02-20T03:08:01.611Z,1009.3
2023-02-20T03:09:05.665Z,1009.4
2023-02-20T03:10:06.169Z,1009.3
2023-02-20T03:11:06.004Z,1009.3
2023-02-20T03:12:03.420Z,1009.3
2023-02-20T03:13:04.647Z,1009.3
2023-02-20T03:14:07.052Z,1009.3
2023-02-20T03:15:11.031Z,1009.3
2023-02-20T03:16:01.624Z,1009.3
2023-02-20T03:17:08.774Z,1009.2
2023-02-20T03:18:09.887Z,1009.2
2023-02-20T03:19:05.346Z,1009.2
2023-02-20T03:20:07.255Z,1009.1
2023-02-20T03:21:08.514Z,1009.2
2023-02-20T03:22:08.387Z,1009.1
2023-02-20T03:23:05.732Z,1009.1
2023-02-20T03:24:04.324Z,1009.0
2023-02-20T03:25:08.720Z,1009.0
2023-02-20T03:26:06.785Z,1009.0
2023-02-20T03:27:03.860Z,1008.9
2023-02-20T03:28:06.032Z,1008.9
2023-02-20T03:29:07.452Z,1008.9
2023-02-20T03:30:02.156Z,1008.8
2023-02-20T03:31:07.535Z,1008.9
2023-02-20T03:32:09.144Z,1008.8
2023-02-20T03:33:09.597Z,1008.8
2023-02-20T03:34:09.951Z,1008.8
2023-02-20T03:35:03.495Z,1008.8
2023-02-20T03:36:04.695Z,1008.8
2023-02-20T03:37:08.883Z,1008.8
2023-02-20T03:38:06.574Z,1008.8
2023-02-20T03:39:06.747Z,1008.8
2023-02-20T03:40:08.877Z,1008.7
2023-02-20T03:41:03.663Z,1008.7
2023-02-20T03:42:05.829Z,1008.7
2023-02-20T03:43:10.102Z,1008.7
2023-02-20T03:44:04.727Z,1008.6
2023-02-20T03:45:03.718Z,1008.6
2023-02-20T03:46:05.655Z,1008.6
2023-02-20T03:47:04.530Z,1008.6
2023-02-20T03:48:06.586Z,1008.6
2023-02-20T03:49:07.956Z,1008.5
2023-02-20T03:50:04.083Z,1008.6
2023-02-20T03:51:02.626Z,1008.4
2023-02-20T03:52:02.581Z,1008.4
2023-02-20T03:53:01.843Z,1008.4
2023-02-20T03:54:02.534Z,1008.3
2023-02-20T03:55:02.353Z,1008.4
2023-02-20T03:56:07.199Z,1008.4
2023-02-20T03:57:06.158Z,1008.3
2023-02-20T03:58:07.474Z,1008.3
2023-02-20T03:59:09.788Z,1008.3
2023-02-20T04:00:04.954Z,1008.2
2023-02-20T04:01:05.182Z,1008.3
2023-02-20T04:02:06.386Z,1008.2
2023-02-20T04:03:09.904Z,1008.2
2023-02-20T04:04:04.111Z,1008.2
2023-02-20T04:05:06.944Z,1008.2
2023-02-20T04:06:05.510Z,1008.2
2023-02-20T04:07:09.319Z,1008.3
2023-02-20T04:08:08.080Z,1008.2
2023-02-20T04:09:06.592Z,1008.2
2023-02-20T04:10:07.215Z,1008.2
2023-02-20T04:11:08.070Z,1008.2
2023-02-20T04:12:08.546Z,1008.2
2023-02-20T04:13:03.561Z,1008.2
2023-02-20T04:14:03.028Z,1008.1
2023-02-20T04:15:04.214Z,1008.2
2023-02-20T04:16:02.729Z,1008.1
2023-02-20T04:17:05.658Z,1008.0
2023-02-20T04:18:07.227Z,1008.0
2023-02-20T04:19:02.124Z,1008.0
2023-02-20T04:20:03.295Z,1008.0
2023-02-20T04:21:05.321Z,1008.0
2023-02-20T04:22:06.041Z,1008.0
2023-02-20T04:23:09.369Z,1008.0
2023-02-20T04:24:06.520Z,1008.0
2023-02-20T04:25:11.372Z,1007.9
2023-02-20T04:26:07.137Z,1007.9
2023-02-20T04:27:02.238Z,1007.9
2023-02-20T04:28:03.375Z,1007.9
2023-02-20T04:29:02.363Z,1007.9
2023-02-20T04:30:01.866Z,1007.9
2023-02-20T04:31:01.976Z,1007.9
2023-02-20T04:32:01.662Z,1008.0
2023-02-20T04:33:02.022Z,1007.8
2023-02-20T04:34:01.898Z,1007.9
2023-02-20T04:35:01.606Z,1007.9
2023-02-20T04:36:01.854Z,1007.9
2023-02-20T04:37:07.425Z,1007.9
2023-02-20T04:38:01.488Z,1007.9
2023-02-20T04:39:02.040Z,1007.8
2023-02-20T04:40:01.466Z,1007.9
2023-02-20T04:41:01.814Z,1007.9
2023-02-20T04:42:01.874Z,1007.8
2023-02-20T04:43:01.967Z,1007.9
2023-02-20T04:44:01.461Z,1007.8
2023-02-20T04:45:01.470Z,1007.8
2023-02-20T04:46:01.480Z,1007.8
2023-02-20T04:47:03.939Z,1007.8
2023-02-20T04:48:01.829Z,1007.8
2023-02-20T04:49:01.449Z,1007.8
2023-02-20T04:50:02.600Z,1007.7
2023-02-20T04:51:03.080Z,1007.7
2023-02-20T04:52:02.106Z,1007.8
2023-02-20T04:53:01.930Z,1007.8
2023-02-20T04:54:01.951Z,1007.7
2023-02-20T04:55:01.481Z,1007.6
2023-02-20T04:56:01.477Z,1007.6
2023-02-20T04:57:01.897Z,1007.6
2023-02-20T04:58:01.858Z,1007.5
2023-02-20T04:59:01.473Z,1007.6
2023-02-20T05:00:02.141Z,1007.5
2023-02-20T05:01:01.729Z,1007.5
2023-02-20T05:02:01.468Z,1007.4
2023-02-20T05:03:01.457Z,1007.4
2023-02-20T05:04:01.502Z,1007.5
2023-02-20T05:05:01.477Z,1007.4
2023-02-20T05:06:01.478Z,1007.4
2023-02-20T05:07:01.897Z,1007.4
2023-02-20T05:08:04.459Z,1007.3
2023-02-20T05:09:01.470Z,1007.3
2023-02-20T05:10:01.481Z,1007.3
2023-02-20T05:11:01.820Z,1007.2
2023-02-20T05:12:01.722Z,1007.3
2023-02-20T05:13:03.003Z,1007.3
2023-02-20T05:14:01.808Z,1007.2
2023-02-20T05:15:01.599Z,1007.2
2023-02-20T05:16:01.949Z,1007.2
2023-02-20T05:17:01.463Z,1007.2
2023-02-20T05:18:01.465Z,1007.2
2023-02-20T05:19:01.476Z,1007.1
2023-02-20T05:20:01.487Z,1007.1
2023-02-20T05:21:01.820Z,1007.2
2023-02-20T05:22:01.485Z,1007.0
2023-02-20T05:23:02.059Z,1007.1
2023-02-20T05:24:01.913Z,1007.1
2023-02-20T05:25:01.619Z,1007.1
2023-02-20T05:26:01.794Z,1007.0
2023-02-20T05:27:01.924Z,1007.0
2023-02-20T05:28:01.880Z,1007.0
2023-02-20T05:29:01.502Z,1007.0
2023-02-20T05:30:02.646Z,1006.9
2023-02-20T05:31:01.520Z,1007.0
2023-02-20T05:32:02.185Z,1006.9
2023-02-20T05:33:01.484Z,1006.9
2023-02-20T05:34:01.696Z,1006.9
2023-02-20T05:35:01.465Z,1006.9
2023-02-20T05:36:01.533Z,1006.9
2023-02-20T05:37:01.464Z,1006.9
2023-02-20T05:38:01.468Z,1006.9
2023-02-20T05:39:02.529Z,1006.9
2023-02-20T05:40:01.812Z,1006.9
2023-02-20T05:41:01.471Z,1006.8
2023-02-20T05:42:01.857Z,1006.8
2023-02-20T05:43:01.481Z,1006.8
2023-02-20T05:44:01.536Z,1006.8
2023-02-20T05:45:02.223Z,1006.8
2023-02-20T05:46:01.575Z,1006.8
2023-02-20T05:47:01.621Z,1006.7
2023-02-20T05:48:01.826Z,1006.7
2023-02-20T05:49:01.481Z,1006.8
2023-02-20T05:50:01.527Z,1006.7
2023-02-20T05:51:01.520Z,1006.7
2023-02-20T05:52:02.968Z,1006.8
2023-02-20T05:53:02.033Z,1006.7
2023-02-20T05:54:02.779Z,1006.7
2023-02-20T05:55:01.538Z,1006.7
2023-02-20T05:56:03.054Z,1006.7
2023-02-20T05:57:02.238Z,1006.8
2023-02-20T05:58:01.475Z,1006.7
2023-02-20T05:59:01.992Z,1006.7
2023-02-20T06:00:01.625Z,1006.7
2023-02-20T06:01:01.449Z,1006.7
2023-02-20T06:02:01.846Z,1006.7
2023-02-20T06:03:01.473Z,1006.6
2023-02-20T06:04:02.588Z,1006.6
2023-02-20T06:05:01.607Z,1006.6
2023-02-20T06:06:01.816Z,1006.6
2023-02-20T06:07:01.603Z,1006.6
2023-02-20T06:08:02.037Z,1006.6
2023-02-20T06:09:02.985Z,1006.5
2023-02-20T06:10:01.926Z,1006.6
2023-02-20T06:11:01.485Z,1006.5
2023-02-20T06:12:01.828Z,1006.4
2023-02-20T06:13:01.833Z,1006.4
2023-02-20T06:14:02.093Z,1006.4
2023-02-20T06:15:02.132Z,1006.4
2023-02-20T06:16:01.969Z,1006.4
2023-02-20T06:17:01.840Z,1006.4
2023-02-20T06:18:02.041Z,1006.3
2023-02-20T06:19:02.187Z,1006.3
2023-02-20T06:20:01.512Z,1006.4
2023-02-20T06:21:01.460Z,1006.4
2023-02-20T06:22:02.139Z,1006.3
2023-02-20T06:23:01.831Z,1006.3
2023-02-20T06:24:01.490Z,1006.3
2023-02-20T06:25:01.474Z,1006.2
2023-02-20T06:26:01.516Z,1006.2
2023-02-20T06:27:01.465Z,1006.2
2023-02-20T06:28:01.468Z,1006.2
2023-02-20T06:29:01.757Z,1006.2
2023-02-20T06:30:01.560Z,1006.2
2023-02-20T06:31:02.227Z,1006.2
2023-02-20T06:32:01.604Z,1006.2
2023-02-20T06:33:01.830Z,1006.2
2023-02-20T06:34:01.938Z,1006.2
2023-02-20T06:35:01.537Z,1006.2
2023-02-20T06:36:02.511Z,1006.1
2023-02-20T06:37:03.380Z,1006.1
2023-02-20T06:38:01.829Z,1006.1
2023-02-20T06:39:02.476Z,1006.0
2023-02-20T06:40:04.478Z,1006.0
2023-02-20T06:41:01.809Z,1006.0
2023-02-20T06:42:01.562Z,1006.0
2023-02-20T06:43:01.470Z,1005.9
2023-02-20T06:44:01.837Z,1005.9
2023-02-20T06:45:01.864Z,1005.9
2023-02-20T06:46:01.468Z,1005.9
2023-02-20T06:47:01.485Z,1005.9
2023-02-20T06:48:02.924Z,1005.8
2023-02-20T06:49:01.908Z,1005.8
2023-02-20T06:50:01.880Z,1005.9
2023-02-20T06:51:01.839Z,1005.8
2023-02-20T06:52:04.101Z,1005.8
2023-02-20T06:53:02.083Z,1005.8
2023-02-20T06:54:03.060Z,1005.8
2023-02-20T06:55:01.489Z,1005.7
2023-02-20T06:56:01.481Z,1005.6
2023-02-20T06:57:02.080Z,1005.7
2023-02-20T06:58:01.515Z,1005.6
2023-02-20T06:59:03.935Z,1005.6
2023-02-20T07:00:01.926Z,1005.6
2023-02-20T07:01:01.540Z,1005.6
2023-02-20T07:02:02.317Z,1005.5
2023-02-20T07:03:01.834Z,1005.5
2023-02-20T07:04:02.921Z,1005.5
2023-02-20T07:05:02.099Z,1005.5
2023-02-20T07:06:01.573Z,1005.5
2023-02-20T07:07:01.491Z,1005.5
2023-02-20T07:08:01.465Z,1005.5
2023-02-20T07:09:01.478Z,1005.5
2023-02-20T07:10:01.934Z,1005.4
2023-02-20T07:11:02.025Z,1005.3
2023-02-20T07:12:01.471Z,1005.3
2023-02-20T07:13:01.834Z,1005.3
2023-02-20T07:14:01.835Z,1005.3
2023-02-20T07:15:01.465Z,1005.3
2023-02-20T07:16:02.047Z,1005.2
2023-02-20T07:17:01.512Z,1005.2
2023-02-20T07:18:01.840Z,1005.2
2023-02-20T07:19:01.825Z,1005.1
2023-02-20T07:20:01.538Z,1005.1
2023-02-20T07:21:01.897Z,1005.1
2023-02-20T07:22:01.544Z,1005.1
2023-02-20T07:23:01.494Z,1005.1
2023-02-20T07:24:02.121Z,1005.0
2023-02-20T07:25:01.491Z,1005.1
2023-02-20T07:26:01.935Z,1005.1
2023-02-20T07:27:01.839Z,1005.1
2023-02-20T07:28:01.947Z,1005.1
2023-02-20T07:29:02.076Z,1005.0
2023-02-20T07:30:01.577Z,1004.9
2023-02-20T07:31:01.465Z,1004.9
2023-02-20T07:32:01.708Z,1004.9
2023-02-20T07:33:01.479Z,1004.8
2023-02-20T07:34:01.474Z,1004.8
2023-02-20T07:35:06.071Z,1004.8
2023-02-20T07:36:01.494Z,1004.7
2023-02-20T07:37:01.461Z,1004.7
2023-02-20T07:38:01.852Z,1004.7
2023-02-20T07:39:03.649Z,1004.7
2023-02-20T07:40:01.695Z,1004.7
2023-02-20T07:41:01.677Z,1004.7
2023-02-20T07:42:01.468Z,1004.7
2023-02-20T07:43:01.533Z,1004.7
2023-02-20T07:44:01.524Z,1004.7
2023-02-20T07:45:02.205Z,1004.7
2023-02-20T07:46:02.566Z,1004.6
2023-02-20T07:47:01.903Z,1004.6
2023-02-20T07:48:01.464Z,1004.6
2023-02-20T07:49:03.498Z,1004.6
2023-02-20T07:50:01.862Z,1004.5
2023-02-20T07:51:01.976Z,1004.5
2023-02-20T07:52:01.474Z,1004.5
2023-02-20T07:53:01.833Z,1004.5
2023-02-20T07:54:02.162Z,1004.5
2023-02-20T07:55:01.893Z,1004.4
2023-02-20T07:56:01.548Z,1004.4
2023-02-20T07:57:02.133Z,1004.4
2023-02-20T07:58:01.804Z,1004.3
2023-02-20T07:59:01.973Z,1004.3
2023-02-20T08:00:02.235Z,1004.3
2023-02-20T08:01:01.849Z,1004.3
2023-02-20T08:02:01.507Z,1004.3
2023-02-20T08:03:01.927Z,1004.2
2023-02-20T08:04:01.965Z,1004.2
2023-02-20T08:05:01.585Z,1004.1
2023-02-20T08:06:01.855Z,1004.1
2023-02-20T08:07:01.478Z,1004.1
2023-02-20T08:08:01.665Z,1004.0
2023-02-20T08:09:01.910Z,1004.0
2023-02-20T08:10:01.525Z,1004.0
2023-02-20T08:11:08.854Z,1003.9
2023-02-20T08:12:01.862Z,1003.9
2023-02-20T08:13:01.589Z,1004.0
2023-02-20T08:14:03.486Z,1003.9
2023-02-20T08:15:01.569Z,1003.9
2023-02-20T08:16:01.904Z,1003.8
2023-02-20T08:17:01.487Z,1003.8
2023-02-20T08:18:01.474Z,1003.8
2023-02-20T08:19:02.116Z,1003.8
2023-02-20T08:20:01.461Z,1003.8
2023-02-20T08:21:02.421Z,1003.8
2023-02-20T08:22:01.453Z,1003.8
2023-02-20T08:23:02.200Z,1003.8
2023-02-20T08:24:01.477Z,1003.7
2023-02-20T08:25:01.595Z,1003.7
2023-02-20T08:26:03.391Z,1003.7
2023-02-20T08:27:02.755Z,1003.7
2023-02-20T08:28:01.485Z,1003.7
2023-02-20T08:29:01.482Z,1003.7
2023-02-20T08:30:01.860Z,1003.6
2023-02-20T08:31:02.142Z,1003.6
2023-02-20T08:32:01.585Z,1003.6
2023-02-20T08:33:01.819Z,1003.6
2023-02-20T08:34:01.813Z,1003.6
2023-02-20T08:35:01.461Z,1003.6
2023-02-20T08:36:01.701Z,1003.6
2023-02-20T08:37:01.808Z,1003.6
2023-02-20T08:38:03.565Z,1003.6
2023-02-20T08:39:02.107Z,1003.6
2023-02-20T08:40:01.869Z,1003.5
2023-02-20T08:41:04.336Z,1003.5
2023-02-20T08:42:01.564Z,1003.5
2023-02-20T08:43:01.471Z,1003.5
2023-02-20T08:44:01.800Z,1003.5
2023-02-20T08:45:03.070Z,1003.6
2023-02-20T08:46:02.012Z,1003.6
2023-02-20T08:47:01.469Z,1003.6
2023-02-20T08:48:01.469Z,1003.6
2023-02-20T08:49:02.214Z,1003.6
2023-02-20T08:50:02.498Z,1003.6
2023-02-20T08:51:02.755Z,1003.6
2023-02-20T08:52:01.625Z,1003.6
2023-02-20T08:53:01.795Z,1003.6
2023-02-20T08:54:01.479Z,1003.6
2023-02-20T08:55:01.873Z,1003.6
2023-02-20T08:56:01.499Z,1003.6
2023-02-20T08:57:01.464Z,1003.6
2023-02-20T08:58:01.482Z,1003.6
2023-02-20T08:59:01.522Z,1003.6
2023-02-20T09:00:01.546Z,1003.5
2023-02-20T09:01:01.476Z,1003.5
2023-02-20T09:02:01.863Z,1003.5
2023-02-20T09:03:01.730Z,1003.4
2023-02-20T09:04:02.169Z,1003.4
2023-02-20T09:05:01.474Z,1003.3
2023-02-20T09:06:01.787Z,1003.4
2023-02-20T09:07:01.472Z,1003.4
2023-02-20T09:08:02.012Z,1003.4
2023-02-20T09:09:01.979Z,1003.4
2023-02-20T09:10:01.483Z,1003.3
2023-02-20T09:11:01.476Z,1003.3
2023-02-20T09:12:01.459Z,1003.3
2023-02-20T09:13:01.973Z,1003.2
2023-02-20T09:14:01.976Z,1003.1
2023-02-20T09:15:01.544Z,1003.1
2023-02-20T09:16:01.477Z,1003.1
2023-02-20T09:17:01.920Z,1003.0
2023-02-20T09:18:01.468Z,1003.0
2023-02-20T09:19:01.478Z,1002.8
2023-02-20T09:20:01.484Z,1002.7
2023-02-20T09:21:01.478Z,1002.6
2023-02-20T09:22:01.982Z,1002.5
2023-02-20T09:23:01.853Z,1002.5
2023-02-20T09:24:04.317Z,1002.5
2023-02-20T09:25:03.162Z,1002.5
2023-02-20T09:26:01.614Z,1002.5
2023-02-20T09:27:03.258Z,1002.5
2023-02-20T09:28:01.995Z,1002.5
2023-02-20T09:29:01.491Z,1002.5
2023-02-20T09:30:01.971Z,1002.4
2023-02-20T09:31:01.659Z,1002.5
2023-02-20T09:32:02.037Z,1002.5
2023-02-20T09:33:01.878Z,1002.5
2023-02-20T09:34:01.850Z,1002.5
2023-02-20T09:35:01.979Z,1002.5
2023-02-20T09:36:01.620Z,1002.5
2023-02-20T09:37:01.823Z,1002.5
2023-02-20T09:38:02.116Z,1002.4
2023-02-20T09:39:01.483Z,1002.4
2023-02-20T09:40:01.855Z,1002.4
2023-02-20T09:41:02.449Z,1002.3
2023-02-20T09:42:13.621Z,1002.3
2023-02-20T09:43:14.116Z,1002.3
2023-02-20T09:44:11.330Z,1002.3
2023-02-20T09:45:08.613Z,1002.2
2023-02-20T09:46:08.670Z,1002.2
2023-02-20T09:47:08.977Z,1002.2
2023-02-20T09:48:11.543Z,1002.2
2023-02-20T09:49:10.013Z,1002.2
2023-02-20T09:50:06.202Z,1002.2
2023-02-20T09:51:08.077Z,1002.2
2023-02-20T09:52:05.733Z,1002.1
2023-02-20T09:53:15.088Z,1002.2
2023-02-20T09:54:06.646Z,1002.2
2023-02-20T09:55:06.386Z,1002.2
2023-02-20T09:56:04.210Z,1002.1
2023-02-20T09:57:04.548Z,1002.2
2023-02-20T09:58:04.365Z,1002.2
2023-02-20T09:59:09.189Z,1002.2
2023-02-20T10:00:09.865Z,1002.3
2023-02-20T10:01:03.243Z,1002.2
2023-02-20T10:02:13.979Z,1002.2
2023-02-20T10:03:16.343Z,1002.2
2023-02-20T10:04:06.981Z,1002.2
2023-02-20T10:05:06.711Z,1002.1
2023-02-20T10:06:09.131Z,1002.1
2023-02-20T10:07:12.386Z,1002.1
2023-02-20T10:08:01.886Z,1002.2
2023-02-20T10:09:03.236Z,1002.1
2023-02-20T10:10:17.008Z,1002.1
2023-02-20T10:11:05.488Z,1002.0
2023-02-20T10:12:10.220Z,1002.0
2023-02-20T10:13:15.793Z,1002.0
2023-02-20T10:14:20.881Z,1002.0
2023-02-20T10:15:14.481Z,1001.9
2023-02-20T10:16:12.053Z,1001.9
2023-02-20T10:17:12.515Z,1001.8
2023-02-20T10:18:16.022Z,1001.8
2023-02-20T10:19:16.532Z,1001.8
2023-02-20T10:20:09.115Z,1001.8
2023-02-20T10:21:11.323Z,1001.8
2023-02-20T10:22:06.749Z,1001.8
2023-02-20T10:23:11.052Z,1001.7
2023-02-20T10:24:09.402Z,1001.7
2023-02-20T10:25:11.837Z,1001.7
2023-02-20T10:26:06.167Z,1001.7
2023-02-20T10:27:14.828Z,1001.7
2023-02-20T10:28:06.543Z,1001.7
2023-02-20T10:29:13.695Z,1001.7
2023-02-20T10:30:03.116Z,1001.7
2023-02-20T10:31:18.601Z,1001.6
2023-02-20T10:32:05.718Z,1001.7
2023-02-20T10:33:11.240Z,1001.6
2023-02-20T10:34:07.921Z,1001.6
2023-02-20T10:35:06.061Z,1001.5
2023-02-20T10:36:10.207Z,1001.5
2023-02-20T10:37:09.776Z,1001.5
2023-02-20T10:38:06.311Z,1001.5
2023-02-20T10:39:06.249Z,1001.5
2023-02-20T10:40:07.715Z,1001.5
2023-02-20T10:41:07.281Z,1001.5
2023-02-20T10:42:09.777Z,1001.5
2023-02-20T10:43:08.523Z,1001.5
2023-02-20T10:44:09.974Z,1001.5
2023-02-20T10:45:07.405Z,1001.5
2023-02-20T10:46:11.132Z,1001.5
2023-02-20T10:47:06.322Z,1001.5
2023-02-20T10:48:05.806Z,1001.5
2023-02-20T10:49:08.649Z,1001.5
2023-02-20T10:50:07.230Z,1001.4
2023-02-20T10:51:08.395Z,1001.5
2023-02-20T10:52:07.483Z,1001.4
2023-02-20T10:53:11.836Z,1001.5
2023-02-20T10:54:07.534Z,1001.4
2023-02-20T10:55:08.486Z,1001.4
2023-02-20T10:56:08.419Z,1001.4
2023-02-20T10:57:08.516Z,1001.5
2023-02-20T10:58:10.050Z,1001.5
2023-02-20T10:59:07.525Z,1001.4
2023-02-20T11:00:07.269Z,1001.4
2023-02-20T11:01:05.603Z,1001.4
2023-02-20T11:02:05.736Z,1001.4
2023-02-20T11:03:07.154Z,1001.4
2023-02-20T11:04:08.151Z,1001.4
2023-02-20T11:05:06.653Z,1001.4
2023-02-20T11:06:03.707Z,1001.4
2023-02-20T11:07:07.840Z,1001.4
2023-02-20T11:08:01.836Z,1001.4
2023-02-20T11:09:02.247Z,1001.3
2023-02-20T11:10:01.460Z,1001.3
2023-02-20T11:11:20.012Z,1001.3
2023-02-20T11:12:02.597Z,1001.3
2023-02-20T11:13:01.936Z,1001.3
2023-02-20T11:14:10.006Z,1001.3
2023-02-20T11:15:08.220Z,1001.3
2023-02-20T11:16:01.872Z,1001.3
2023-02-20T11:17:07.877Z,1001.3
2023-02-20T11:18:11.073Z,1001.2
2023-02-20T11:19:08.154Z,1001.2
2023-02-20T11:20:02.952Z,1001.2
2023-02-20T11:21:01.505Z,1001.2
2023-02-20T11:22:01.479Z,1001.2
2023-02-20T11:23:02.148Z,1001.1
2023-02-20T11:24:20.896Z,1001.1
2023-02-20T11:25:15.788Z,1001.1
2023-02-20T11:26:14.468Z,1001.1
2023-02-20T11:27:08.500Z,1001.0
2023-02-20T11:28:10.591Z,1001.0
2023-02-20T11:29:05.820Z,1001.0
2023-02-20T11:30:13.085Z,1001.0
2023-02-20T11:31:04.473Z,1000.9
2023-02-20T11:32:20.870Z,1000.9
2023-02-20T11:33:04.990Z,1000.9
2023-02-20T11:34:04.673Z,1000.9
2023-02-20T11:35:11.483Z,1000.8
2023-02-20T11:36:11.882Z,1000.8
2023-02-20T11:37:05.438Z,1000.8
2023-02-20T11:38:20.875Z,1000.9
2023-02-20T11:39:03.718Z,1000.9
2023-02-20T11:40:02.222Z,1000.9
2023-02-20T11:41:11.289Z,1000.9
2023-02-20T11:42:10.801Z,1000.9
2023-02-20T11:43:10.807Z,1000.9
2023-02-20T11:44:16.487Z,1000.9
2023-02-20T11:45:13.253Z,1000.8
2023-02-20T11:46:13.580Z,1000.8
2023-02-20T11:47:18.380Z,1000.8
2023-02-20T11:48:10.986Z,1000.9
2023-02-20T11:49:03.035Z,1000.9
2023-02-20T11:50:18.990Z,1000.8
2023-02-20T11:51:01.828Z,1000.8
2023-02-20T11:52:08.562Z,1000.8
2023-02-20T11:53:03.568Z,1000.8
2023-02-20T11:54:08.407Z,1000.8
2023-02-20T11:55:17.649Z,1000.7
2023-02-20T11:56:12.417Z,1000.7
2023-02-20T11:57:05.770Z,1000.7
2023-02-20T11:58:02.581Z,1000.7
2023-02-20T11:59:20.888Z,1000.7
2023-02-20T12:00:13.210Z,1000.6
2023-02-20T12:01:01.775Z,1000.6
2023-02-20T12:02:12.233Z,1000.6
2023-02-20T12:03:12.214Z,1000.6
2023-02-20T12:04:01.550Z,1000.6
2023-02-20T12:05:05.289Z,1000.7
2023-02-20T12:06:12.874Z,1000.7
2023-02-20T12:07:17.202Z,1000.7
2023-02-20T12:08:01.571Z,1000.6
2023-02-20T12:09:04.021Z,1000.6
2023-02-20T12:10:12.790Z,1000.6
2023-02-20T12:11:06.434Z,1000.6
2023-02-20T12:12:01.466Z,1000.6
2023-02-20T12:13:02.383Z,1000.5
2023-02-20T12:14:01.510Z,1000.5
2023-02-20T12:15:01.501Z,1000.5
2023-02-20T12:16:16.153Z,1000.5
2023-02-20T12:17:12.284Z,1000.5
2023-02-20T12:18:13.463Z,1000.5
2023-02-20T12:19:09.819Z,1000.4
2023-02-20T12:20:08.939Z,1000.4
2023-02-20T12:21:12.978Z,1000.4
2023-02-20T12:22:11.173Z,1000.4
2023-02-20T12:23:14.030Z,1000.4
2023-02-20T12:24:16.642Z,1000.4
2023-02-20T12:25:17.677Z,1000.4
2023-02-20T12:26:17.380Z,1000.4
2023-02-20T12:27:08.124Z,1000.4
2023-02-20T12:28:11.853Z,1000.4
2023-02-20T12:29:15.072Z,1000.4
2023-02-20T12:30:14.749Z,1000.4
2023-02-20T12:31:16.877Z,1000.4
2023-02-20T12:32:19.429Z,1000.4
2023-02-20T12:33:17.167Z,1000.4
2023-02-20T12:34:12.978Z,1000.4
2023-02-20T12:35:15.365Z,1000.4